Hopedale, Canada
Current Conditions -  °F | °C
As of 1:00 PM on Thursday 18 Dec 2014 (Local Time) from CYDP Reporting Station
Clear Clear  
Wind Chill:   Ceiling: Unl
Heat Index: 21°   Visibility: 15mi
Dew Point:   Wind: 14mph
Humidity: 46%   Direction: 300°WNW
Pressure: 29.87"   Gusts: NA
Location:  55.46°N, 60.19°W
Report Text: CYDP 181700Z 30012KT 15SM SKC M06/M16 A2987 RMK SLP116
Loading
Personal Weather Stations






























Interactive Weather Map New forecast layout! Learn more

10-Day Weather Forecast

Advertisements
Track Severe Weather on mobile